Flight Track Log - Related Links

Times and Time Zones

All times are in EDT time to prevent confusion due to time zone crossing. See the N803UA flight status page for this flight to view local times or setup timezone preferences in your user account.

Time Position Orientation Groundspeed Altitude Reporting Facility
EDT Latitude Longitude Course Direction KTS MPH feet Rate Location/Type
Sat 12:06:32 PM 39.8084 -104.6528 288° West  Level FlightAware Approximate
Sat 12:07:02 PM 39.8333 -104.7500 250° West 176 203 6,700  Level Denver TRACON
Sat 12:12:01 PM 39.6975 -105.2292 245° Southwest 346 398 19,000 2,540 Climbing Denver Center
Sat 12:13:01 PM 39.6550 -105.3458 243° Southwest 351 404 21,900 2,450 Climbing Denver Center
Sat 12:14:01 PM 39.6061 -105.4706 245° Southwest 351 404 23,900 2,000 Climbing Denver Center
Sat 12:15:01 PM 39.5631 -105.5897 248° West 356 410 25,900 1,800 Climbing Denver Center
Sat 12:16:01 PM 39.5244 -105.7142 250° West 368 423 27,500 1,700 Climbing Denver Center
Sat 12:17:01 PM 39.4878 -105.8464 250° West 380 437 29,300 1,600 Climbing Denver Center
Sat 12:18:01 PM 39.4528 -105.9731 249° West 389 448 30,700 1,450 Climbing Denver Center
Sat 12:19:01 PM 39.4139 -106.1050 251° West 389 448 32,200 1,550 Climbing Denver Center
Sat 12:20:01 PM 39.3767 -106.2422 251° West 394 453 33,800 1,500 Climbing Denver Center
Sat 12:21:01 PM 39.3433 -106.3658 250° West 389 448 35,200 1,100 Climbing Denver Center
Sat 12:22:01 PM 39.3100 -106.4839 249° West 382 440 36,000 400 Climbing Denver Center
Sat 12:23:01 PM 39.2661 -106.6314 243° Southwest 400 460 36,000  Level Denver Center
Sat 12:24:01 PM 39.2139 -106.7625 232° Southwest 410 472 36,000  Level Denver Center
Sat 12:25:01 PM 39.1447 -106.8775 231° Southwest 415 478 36,000 -50 Level Denver Center
Sat 12:26:01 PM 39.0817 -106.9786 231° Southwest 415 478 35,900 -50 Descending Denver Center
Sat 12:27:01 PM 39.0039 -107.1036 231° Southwest 410 472 35,900 50 Level Denver Center
Sat 12:28:01 PM 38.9344 -107.2153 232° Southwest 410 472 36,000 50 Climbing Denver Center
Sat 12:29:01 PM 38.8647 -107.3292 233° Southwest 415 478 36,000  Level Denver Center
Sat 12:30:01 PM 38.8036 -107.4322 238° Southwest 415 478 36,000  Level Denver Center
Sat 12:31:01 PM 38.7378 -107.5669 239° Southwest 415 478 36,000  Level Denver Center
Sat 12:32:01 PM 38.6800 -107.6911 238° Southwest 415 478 36,000 -50 Level Denver Center
Sat 12:33:01 PM 38.6203 -107.8150 238° Southwest 410 472 35,900  Descending Denver Center
Sat 12:34:01 PM 38.5647 -107.9281 239° Southwest 415 478 36,000 50 Climbing Denver Center
Sat 12:35:01 PM 38.5069 -108.0489 238° Southwest 415 478 36,000  Level Denver Center
Sat 12:36:01 PM 38.4422 -108.1828 239° Southwest 410 472 36,000  Level Denver Center
Sat 12:37:01 PM 38.3842 -108.3083 236° Southwest 410 472 36,000  Level Denver Center
Sat 12:38:01 PM 38.3281 -108.4153 240° Southwest 411 473 36,000  Level Denver Center
Sat 12:39:01 PM 38.2717 -108.5381 238° Southwest 411 473 36,000  Level Denver Center
Sat 12:40:01 PM 38.2067 -108.6708 238° Southwest 411 473 36,000 -50 Level Denver Center
Sat 12:41:01 PM 38.1481 -108.7881 238° Southwest 406 467 35,900  Descending Denver Center
Sat 12:42:01 PM 38.0958 -108.8944 238° Southwest 406 467 36,000 50 Climbing Denver Center
Sat 12:43:01 PM 38.0392 -109.0083 239° Southwest 397 457 36,000  Level Denver Center
Sat 12:44:01 PM 37.9756 -109.1406 238° Southwest 397 457 36,000  Level Denver Center
Sat 12:45:01 PM 37.9164 -109.2619 238° Southwest 397 457 36,000  Level Denver Center
Sat 12:46:01 PM 37.8658 -109.3650 237° Southwest 402 463 36,000 -50 Level Denver Center
Sat 12:47:01 PM 37.8000 -109.4911 238° Southwest 402 463 35,900  Descending Denver Center
Sat 12:48:01 PM 37.7406 -109.6119 237° Southwest 395 455 36,000 50 Climbing Denver Center
Sat 12:49:01 PM 37.6811 -109.7275 238° Southwest 400 460 36,000  Level Denver Center
Sat 12:50:01 PM 37.6278 -109.8350 237° Southwest 400 460 36,000  Level Denver Center
Sat 12:51:01 PM 37.5614 -109.9631 237° Southwest 400 460 36,000  Level Denver Center
Sat 12:52:01 PM 37.5036 -110.0753 238° Southwest 400 460 36,000  Level Denver Center
Sat 12:53:01 PM 37.4503 -110.1825 233° Southwest 400 460 36,000  Level Denver Center
Sat 12:54:01 PM 37.3775 -110.3039 237° Southwest 400 460 36,000 -50 Level Denver Center
Sat 12:55:01 PM 37.3192 -110.4183 237° Southwest 400 460 35,900 -50 Descending Denver Center
Sat 12:56:01 PM 37.2611 -110.5300 237° Southwest 394 453 35,900 50 Level Denver Center
Sat 12:57:01 PM 37.2028 -110.6414 236° Southwest 384 442 36,000 50 Climbing Denver Center
Sat 12:58:01 PM 37.1558 -110.7297 237° Southwest 384 442 36,000  Level Denver Center
Sat 12:59:01 PM 37.0928 -110.8536 237° Southwest 384 442 36,000  Level Denver Center
Sat 01:00:01 PM 37.0342 -110.9669 237° Southwest 384 442 36,000  Level Denver Center
Sat 01:01:01 PM 36.9756 -111.0778 236° Southwest 389 448 36,000 -50 Level Denver Center
Sat 01:02:01 PM 36.9167 -111.1883 238° Southwest 389 448 35,900  Descending Denver Center
Sat 01:02:45 PM 36.8692 -111.2839 236° Southwest 390 449 36,000 58 Climbing Los Angeles Center
Sat 01:03:45 PM 36.8086 -111.3939 236° Southwest 372 428 36,000  Level Los Angeles Center
Sat 01:04:45 PM 36.7503 -111.5036 237° Southwest 377 434 36,000 -50 Level Los Angeles Center
Sat 01:05:45 PM 36.7036 -111.5917 237° Southwest 382 440 35,900 -50 Descending Los Angeles Center
Sat 01:06:45 PM 36.6392 -111.7144 235° Southwest 382 440 35,900 50 Level Los Angeles Center
Sat 01:07:45 PM 36.5786 -111.8239 237° Southwest 387 445 36,000 50 Climbing Los Angeles Center
Sat 01:08:45 PM 36.5178 -111.9383 236° Southwest 392 451 36,000  Level Los Angeles Center
Sat 01:09:45 PM 36.4550 -112.0525 236° Southwest 392 451 36,000  Level Los Angeles Center
Sat 01:10:45 PM 36.3919 -112.1667 237° Southwest 398 458 36,000  Level Los Angeles Center
Sat 01:11:45 PM 36.3253 -112.2964 243° Southwest 403 464 36,000  Level Los Angeles Center
Sat 01:12:45 PM 36.2767 -112.4144 242° Southwest 403 464 36,000 -50 Level Los Angeles Center
Sat 01:13:45 PM 36.2239 -112.5353 241° Southwest 403 464 35,900 -50 Descending Los Angeles Center
Sat 01:14:45 PM 36.1711 -112.6536 244° Southwest 403 464 35,900  Level Los Angeles Center
Sat 01:15:45 PM 36.1222 -112.7764 242° Southwest 403 464 35,900 50 Level Los Angeles Center
Sat 01:16:45 PM 36.0753 -112.8836 241° Southwest 398 458 36,000 50 Climbing Los Angeles Center
Sat 01:17:45 PM 36.0219 -113.0039 242° Southwest 398 458 36,000  Level Los Angeles Center
Sat 01:18:45 PM 35.9708 -113.1242 241° Southwest 398 458 36,000  Level Los Angeles Center
Sat 01:19:45 PM 35.9172 -113.2414 241° Southwest 398 458 36,000  Level Los Angeles Center
Sat 01:20:45 PM 35.8636 -113.3611 241° Southwest 398 458 36,000  Level Los Angeles Center
Sat 01:21:45 PM 35.8039 -113.4939 241° Southwest 398 458 36,000  Level Los Angeles Center
Sat 01:22:45 PM 35.7522 -113.6106 241° Southwest 398 458 36,000  Level Los Angeles Center
Sat 01:23:45 PM 35.6983 -113.7325 241° Southwest 398 458 36,000  Level Los Angeles Center
Sat 01:24:45 PM 35.6464 -113.8492 241° Southwest 403 464 36,000  Level Los Angeles Center
Sat 01:25:45 PM 35.5922 -113.9681 240° Southwest 396 456 36,000  Level Los Angeles Center
Sat 01:26:45 PM 35.5378 -114.0844 241° Southwest 396 456 36,000  Level Los Angeles Center
Sat 01:27:45 PM 35.4856 -114.2006 241° Southwest 396 456 36,000  Level Los Angeles Center
Sat 01:28:45 PM 35.4331 -114.3164 241° Southwest 398 458 36,000  Level Los Angeles Center
Sat 01:29:45 PM 35.3803 -114.4322 240° Southwest 392 451 36,000  Level Los Angeles Center
Sat 01:30:45 PM 35.3256 -114.5506 240° Southwest 397 457 36,000  Level Los Angeles Center
Sat 01:31:45 PM 35.2706 -114.6661 241° Southwest 397 457 36,000  Level Los Angeles Center
Sat 01:32:45 PM 35.2178 -114.7839 239° Southwest 397 457 36,000  Level Los Angeles Center
Sat 01:33:45 PM 35.1625 -114.8967 241° Southwest 397 457 36,000  Level Los Angeles Center
Sat 01:34:45 PM 35.1094 -115.0142 240° Southwest 397 457 36,000  Level Los Angeles Center
Sat 01:35:45 PM 35.0561 -115.1267 239° Southwest 397 457 36,000  Level Los Angeles Center
Sat 01:36:45 PM 35.0131 -115.2158 241° Southwest 397 457 36,000  Level Los Angeles Center
Sat 01:37:45 PM 34.9533 -115.3483 240° Southwest 403 464 36,000 -100 Level Los Angeles Center
Sat 01:38:45 PM 34.8958 -115.4678 238° Southwest 390 449 35,800 -500 Descending Los Angeles Center
Sat 01:39:45 PM 34.8419 -115.5744 242° Southwest 393 452 35,000 -900 Descending Los Angeles Center
Sat 01:40:45 PM 34.7903 -115.6914 239° Southwest 404 465 34,000 -1,000 Descending Los Angeles Center
Sat 01:41:45 PM 34.7322 -115.8078 241° Southwest 404 465 33,000 -1,000 Descending Los Angeles Center
Sat 01:42:45 PM 34.6803 -115.9217 240° Southwest 404 465 32,000 -1,000 Descending Los Angeles Center
Sat 01:43:45 PM 34.6219 -116.0431 241° Southwest 404 465 31,000 -1,000 Descending Los Angeles Center
Sat 01:44:45 PM 34.5678 -116.1617 240° Southwest 404 465 30,000 -1,000 Descending Los Angeles Center
Sat 01:45:45 PM 34.5092 -116.2825 240° Southwest 410 472 29,000 -1,000 Descending Los Angeles Center
Sat 01:46:45 PM 34.4506 -116.4033 240° Southwest 415 478 28,000 -1,000 Descending Los Angeles Center
Sat 01:47:45 PM 34.3917 -116.5267 239° Southwest 421 484 27,000 -1,000 Descending Los Angeles Center
Sat 01:48:45 PM 34.3308 -116.6494 239° Southwest 421 484 26,000 -1,050 Descending Los Angeles Center
Sat 01:49:45 PM 34.2717 -116.7672 243° Southwest 426 490 24,900 -2,100 Descending Los Angeles Center
Sat 01:50:45 PM 34.2167 -116.9000 239° Southwest 420 483 21,800 -3,000 Descending Los Angeles Center
Sat 01:51:45 PM 34.1575 -117.0200 234° Southwest 414 476 18,900 -2,103 Descending Los Angeles Center
Sat 01:52:42 PM 34.1000 -117.1167 248° West 366 421 17,700 -1,333 Descending Southern California TRACON
Sat 01:53:42 PM 34.0667 -117.2167 251° West 346 398 16,300 -1,500 Descending Southern California TRACON
Sat 01:54:42 PM 34.0333 -117.3333 270° West 342 394 14,700 -1,400 Descending Southern California TRACON
Sat 01:55:42 PM 34.0333 -117.4500 259° West 331 381 13,500 -1,200 Descending Southern California TRACON
Sat 01:56:42 PM 34.0167 -117.5500 270° West 295 339 12,300 -1,300 Descending Southern California TRACON
Sat 01:57:42 PM 34.0167 -117.6500 259° West 292 336 10,900 -1,429 Descending Southern California TRACON
Sat 01:58:48 PM 34.0000 -117.7500 270° West 283 326 9,300 -1,438 Descending Southern California TRACON
Sat 01:59:43 PM 34.0000 -117.8333 256° West 286 329 8,000 -1,252 Descending Southern California TRACON
Sat 02:00:43 PM 33.9833 -117.9167 270° West 269 310 6,900 -1,100 Descending Southern California TRACON
Sat 02:01:43 PM 33.9833 -118.0000 256° West 237 273 5,800 -950 Descending Southern California TRACON
Sat 02:02:43 PM 33.9667 -118.0833 270° West 232 267 5,000 -1,000 Descending Southern California TRACON
Sat 02:03:43 PM 33.9667 -118.1667 253° West 239 275 3,800 -1,050 Descending Southern California TRACON
Sat 02:04:43 PM 33.9500 -118.2333 253° West 197 227 2,900 -900 Descending Southern California TRACON

Login

Don't have an account? Register now (free) for customized features, flight alerts, and more!